sensor_id;sensor_type;location;lat;lon;timestamp;pressure;altitude;pressure_sealevel;temperature;humidity
71109;BME280;59614;51.012;-1.648;2023-04-24T00:02:01;99822.94;;;7.09;97.95
71109;BME280;59614;51.012;-1.648;2023-04-24T00:04:27;99829.06;;;7.09;97.44
71109;BME280;59614;51.012;-1.648;2023-04-24T00:06:52;99818.63;;;7.03;97.41
71109;BME280;59614;51.012;-1.648;2023-04-24T00:09:22;99835.28;;;7.02;97.05
71109;BME280;59614;51.012;-1.648;2023-04-24T00:11:48;99837.03;;;6.99;96.56
71109;BME280;59614;51.012;-1.648;2023-04-24T00:14:13;99829.22;;;6.94;96.26
71109;BME280;59614;51.012;-1.648;2023-04-24T00:16:39;99830.09;;;6.94;96.59
71109;BME280;59614;51.012;-1.648;2023-04-24T00:19:04;99828.31;;;6.98;97.07
71109;BME280;59614;51.012;-1.648;2023-04-24T00:21:31;99830.09;;;6.94;96.63
71109;BME280;59614;51.012;-1.648;2023-04-24T00:23:58;99837.22;;;6.82;96.46
71109;BME280;59614;51.012;-1.648;2023-04-24T00:26:23;99835.41;;;6.88;97.06
71109;BME280;59614;51.012;-1.648;2023-04-24T00:28:48;99830.16;;;6.88;96.58
71109;BME280;59614;51.012;-1.648;2023-04-24T00:31:14;99839.81;;;6.85;97.00
71109;BME280;59614;51.012;-1.648;2023-04-24T00:33:39;99845.09;;;6.82;96.51
71109;BME280;59614;51.012;-1.648;2023-04-24T00:36:05;99847.72;;;6.83;96.67
71109;BME280;59614;51.012;-1.648;2023-04-24T00:38:31;99851.19;;;6.85;97.09
71109;BME280;59614;51.012;-1.648;2023-04-24T00:40:56;99844.31;;;6.75;97.20
71109;BME280;59614;51.012;-1.648;2023-04-24T00:43:22;99857.38;;;6.78;97.38
71109;BME280;59614;51.012;-1.648;2023-04-24T00:45:47;99849.56;;;6.75;97.54
71109;BME280;59614;51.012;-1.648;2023-04-24T00:48:13;99844.31;;;6.72;96.75
71109;BME280;59614;51.012;-1.648;2023-04-24T00:50:39;99853.94;;;6.73;96.42
71109;BME280;59614;51.012;-1.648;2023-04-24T00:53:05;99854.81;;;6.70;95.76
71109;BME280;59614;51.012;-1.648;2023-04-24T00:55:30;99856.63;;;6.65;95.46
71109;BME280;59614;51.012;-1.648;2023-04-24T00:57:56;99872.44;;;6.57;95.63
71109;BME280;59614;51.012;-1.648;2023-04-24T01:00:22;99870.78;;;6.47;95.55
71109;BME280;59614;51.012;-1.648;2023-04-24T01:02:48;99871.72;;;6.40;96.06
71109;BME280;59614;51.012;-1.648;2023-04-24T01:05:14;99876.09;;;6.34;95.74
71109;BME280;59614;51.012;-1.648;2023-04-24T01:07:45;99878.78;;;6.30;98.53
71109;BME280;59614;51.012;-1.648;2023-04-24T01:10:11;99881.34;;;6.38;98.59
71109;BME280;59614;51.012;-1.648;2023-04-24T01:12:38;99888.28;;;6.42;98.02
71109;BME280;59614;51.012;-1.648;2023-04-24T01:15:04;99883.97;;;6.38;98.80
71109;BME280;59614;51.012;-1.648;2023-04-24T01:17:30;99885.72;;;6.32;100.00
71109;BME280;59614;51.012;-1.648;2023-04-24T01:19:56;99883.81;;;6.55;100.00
71109;BME280;59614;51.012;-1.648;2023-04-24T01:22:22;99874.06;;;6.68;98.86
71109;BME280;59614;51.012;-1.648;2023-04-24T01:24:48;99886.38;;;6.62;98.34
71109;BME280;59614;51.012;-1.648;2023-04-24T01:27:14;99881.09;;;6.67;97.86
71109;BME280;59614;51.012;-1.648;2023-04-24T01:29:40;99874.97;;;6.65;97.49
71109;BME280;59614;51.012;-1.648;2023-04-24T01:32:06;99875.13;;;6.51;97.50
71109;BME280;59614;51.012;-1.648;2023-04-24T01:34:32;99877.78;;;6.46;97.38
71109;BME280;59614;51.012;-1.648;2023-04-24T01:36:57;99871.69;;;6.44;97.45
71109;BME280;59614;51.012;-1.648;2023-04-24T01:39:23;99879.50;;;6.49;98.61
71109;BME280;59614;51.012;-1.648;2023-04-24T01:41:51;99869.06;;;6.44;97.94
71109;BME280;59614;51.012;-1.648;2023-04-24T01:44:17;99873.47;;;6.41;97.38
71109;BME280;59614;51.012;-1.648;2023-04-24T01:46:43;99874.38;;;6.33;97.52
71109;BME280;59614;51.012;-1.648;2023-04-24T01:49:09;99874.41;;;6.30;97.51
71109;BME280;59614;51.012;-1.648;2023-04-24T01:51:34;99875.25;;;6.34;98.42
71109;BME280;59614;51.012;-1.648;2023-04-24T01:54:00;99874.41;;;6.29;100.00
71109;BME280;59614;51.012;-1.648;2023-04-24T01:56:25;99878.69;;;6.39;99.63
71109;BME280;59614;51.012;-1.648;2023-04-24T01:58:52;99882.28;;;6.30;99.50
71109;BME280;59614;51.012;-1.648;2023-04-24T02:01:20;99887.47;;;6.37;100.00
71109;BME280;59614;51.012;-1.648;2023-04-24T02:03:46;99891.78;;;6.39;100.00
71109;BME280;59614;51.012;-1.648;2023-04-24T02:06:11;99881.28;;;6.44;98.94
71109;BME280;59614;51.012;-1.648;2023-04-24T02:08:37;99896.19;;;6.37;99.42
71109;BME280;59614;51.012;-1.648;2023-04-24T02:11:02;99899.63;;;6.45;100.00
71109;BME280;59614;51.012;-1.648;2023-04-24T02:13:28;99891.81;;;6.36;100.00
71109;BME280;59614;51.012;-1.648;2023-04-24T02:15:53;99893.50;;;6.45;100.00
71109;BME280;59614;51.012;-1.648;2023-04-24T02:18:19;99895.34;;;6.33;100.00
71109;BME280;59614;51.012;-1.648;2023-04-24T02:20:45;99910.94;;;6.51;99.58
71109;BME280;59614;51.012;-1.648;2023-04-24T02:23:10;99909.25;;;6.42;99.27
71109;BME280;59614;51.012;-1.648;2023-04-24T02:25:36;99910.94;;;6.52;98.85
71109;BME280;59614;51.012;-1.648;2023-04-24T02:28:01;99927.59;;;6.46;98.25
71109;BME280;59614;51.012;-1.648;2023-04-24T02:30:28;99923.28;;;6.34;97.68
71109;BME280;59614;51.012;-1.648;2023-04-24T02:32:53;99928.63;;;6.22;99.15
71109;BME280;59614;51.012;-1.648;2023-04-24T02:35:19;99927.75;;;6.20;99.18
71109;BME280;59614;51.012;-1.648;2023-04-24T02:37:45;99919.00;;;6.24;98.93
71109;BME280;59614;51.012;-1.648;2023-04-24T02:40:10;99919.81;;;6.32;100.00
71109;BME280;59614;51.012;-1.648;2023-04-24T02:42:36;99925.88;;;6.39;99.01
71109;BME280;59614;51.012;-1.648;2023-04-24T02:45:01;99925.78;;;6.48;98.82
71109;BME280;59614;51.012;-1.648;2023-04-24T02:47:27;99928.38;;;6.53;98.38
71109;BME280;59614;51.012;-1.648;2023-04-24T02:49:52;99934.56;;;6.46;97.85
71109;BME280;59614;51.012;-1.648;2023-04-24T02:52:17;99941.59;;;6.39;97.96
71109;BME280;59614;51.012;-1.648;2023-04-24T02:54:43;99942.53;;;6.32;97.92
71109;BME280;59614;51.012;-1.648;2023-04-24T02:57:08;99947.72;;;6.38;98.56
71109;BME280;59614;51.012;-1.648;2023-04-24T02:59:34;99943.31;;;6.42;98.58
71109;BME280;59614;51.012;-1.648;2023-04-24T03:01:59;99953.91;;;6.28;98.62
71109;BME280;59614;51.012;-1.648;2023-04-24T03:04:25;99958.28;;;6.30;97.88
71109;BME280;59614;51.012;-1.648;2023-04-24T03:06:52;99963.53;;;6.24;97.40
71109;BME280;59614;51.012;-1.648;2023-04-24T03:09:20;99961.81;;;6.20;98.61
71109;BME280;59614;51.012;-1.648;2023-04-24T03:11:46;99966.19;;;6.23;98.98
71109;BME280;59614;51.012;-1.648;2023-04-24T03:14:11;99960.03;;;6.28;98.29
71109;BME280;59614;51.012;-1.648;2023-04-24T03:16:37;99960.06;;;6.22;98.21
71109;BME280;59614;51.012;-1.648;2023-04-24T03:19:02;99970.59;;;6.16;97.43
71109;BME280;59614;51.012;-1.648;2023-04-24T03:21:28;99974.94;;;6.18;97.82
71109;BME280;59614;51.012;-1.648;2023-04-24T03:23:53;99976.81;;;5.85;99.87
71109;BME280;59614;51.012;-1.648;2023-04-24T03:26:19;99982.94;;;5.81;100.00
71109;BME280;59614;51.012;-1.648;2023-04-24T03:28:45;99970.69;;;5.94;98.79
71109;BME280;59614;51.012;-1.648;2023-04-24T03:31:10;99969.81;;;5.91;99.57
71109;BME280;59614;51.012;-1.648;2023-04-24T03:33:35;99968.03;;;6.03;98.87
71109;BME280;59614;51.012;-1.648;2023-04-24T03:36:01;99969.72;;;6.11;98.60
71109;BME280;59614;51.012;-1.648;2023-04-24T03:38:26;99972.34;;;6.11;97.74
71109;BME280;59614;51.012;-1.648;2023-04-24T03:40:52;99968.03;;;6.07;97.73
71109;BME280;59614;51.012;-1.648;2023-04-24T03:43:17;99965.38;;;6.08;97.67
71109;BME280;59614;51.012;-1.648;2023-04-24T03:45:43;99976.75;;;6.06;97.61
71109;BME280;59614;51.012;-1.648;2023-04-24T03:48:08;99981.13;;;6.00;97.27
71109;BME280;59614;51.012;-1.648;2023-04-24T03:50:34;99985.47;;;5.98;97.59
71109;BME280;59614;51.012;-1.648;2023-04-24T03:52:59;99976.78;;;6.02;97.90
71109;BME280;59614;51.012;-1.648;2023-04-24T03:55:24;99977.66;;;5.95;97.82
71109;BME280;59614;51.012;-1.648;2023-04-24T03:57:50;99983.72;;;5.97;97.98
71109;BME280;59614;51.012;-1.648;2023-04-24T04:00:15;99981.13;;;5.96;97.40
71109;BME280;59614;51.012;-1.648;2023-04-24T04:02:41;99975.88;;;5.97;97.21
71109;BME280;59614;51.012;-1.648;2023-04-24T04:05:07;99980.28;;;5.92;97.03
71109;BME280;59614;51.012;-1.648;2023-04-24T04:07:33;99992.50;;;5.92;96.63
71109;BME280;59614;51.012;-1.648;2023-04-24T04:09:58;99980.31;;;5.81;96.80
71109;BME280;59614;51.012;-1.648;2023-04-24T04:12:24;99985.59;;;5.75;97.05
71109;BME280;59614;51.012;-1.648;2023-04-24T04:14:49;99972.50;;;5.74;97.86
71109;BME280;59614;51.012;-1.648;2023-04-24T04:17:15;99969.00;;;5.76;98.39
71109;BME280;59614;51.012;-1.648;2023-04-24T04:19:40;99973.31;;;5.83;98.12
71109;BME280;59614;51.012;-1.648;2023-04-24T04:22:07;99974.28;;;5.67;97.97
71109;BME280;59614;51.012;-1.648;2023-04-24T04:24:33;99985.59;;;5.78;97.36
71109;BME280;59614;51.012;-1.648;2023-04-24T04:26:59;99975.97;;;5.76;97.31
71109;BME280;59614;51.012;-1.648;2023-04-24T04:29:25;99976.00;;;5.71;97.41
71109;BME280;59614;51.012;-1.648;2023-04-24T04:31:51;99970.75;;;5.71;97.74
71109;BME280;59614;51.012;-1.648;2023-04-24T04:34:16;99967.28;;;5.67;97.63
71109;BME280;59614;51.012;-1.648;2023-04-24T04:36:42;99976.00;;;5.66;97.70
71109;BME280;59614;51.012;-1.648;2023-04-24T04:39:08;99969.94;;;5.61;97.71
71109;BME280;59614;51.012;-1.648;2023-04-24T04:41:33;99971.66;;;5.61;97.80
71109;BME280;59614;51.012;-1.648;2023-04-24T04:44:01;99971.66;;;5.64;98.17
71109;BME280;59614;51.012;-1.648;2023-04-24T04:46:27;99971.66;;;5.57;97.92
71109;BME280;59614;51.012;-1.648;2023-04-24T04:48:53;99977.78;;;5.66;98.54
71109;BME280;59614;51.012;-1.648;2023-04-24T04:51:19;99983.88;;;5.66;98.60
71109;BME280;59614;51.012;-1.648;2023-04-24T04:53:44;99987.38;;;5.64;98.64
71109;BME280;59614;51.012;-1.648;2023-04-24T04:56:10;99994.34;;;5.68;98.70
71109;BME280;59614;51.012;-1.648;2023-04-24T04:58:35;99991.78;;;5.48;100.00
71109;BME280;59614;51.012;-1.648;2023-04-24T05:01:01;99981.28;;;5.57;100.00
71109;BME280;59614;51.012;-1.648;2023-04-24T05:03:27;99982.06;;;5.75;100.00
71109;BME280;59614;51.012;-1.648;2023-04-24T05:05:53;99987.38;;;5.67;99.56
71109;BME280;59614;51.012;-1.648;2023-04-24T05:08:18;99990.81;;;5.72;98.75
71109;BME280;59614;51.012;-1.648;2023-04-24T05:10:44;100002.16;;;5.76;98.77
71109;BME280;59614;51.012;-1.648;2023-04-24T05:13:09;99995.16;;;5.84;99.06
71109;BME280;59614;51.012;-1.648;2023-04-24T05:15:34;99998.63;;;5.89;98.49
71109;BME280;59614;51.012;-1.648;2023-04-24T05:18:00;100002.97;;;5.96;98.36
71109;BME280;59614;51.012;-1.648;2023-04-24T05:20:25;99999.47;;;5.96;98.04
71109;BME280;59614;51.012;-1.648;2023-04-24T05:22:51;100000.34;;;5.98;98.32
71109;BME280;59614;51.012;-1.648;2023-04-24T05:25:16;100007.31;;;5.99;97.78
71109;BME280;59614;51.012;-1.648;2023-04-24T05:27:42;100017.81;;;6.00;97.12
71109;BME280;59614;51.012;-1.648;2023-04-24T05:30:07;100022.22;;;5.91;97.98
71109;BME280;59614;51.012;-1.648;2023-04-24T05:32:33;100023.03;;;6.11;98.73
71109;BME280;59614;51.012;-1.648;2023-04-24T05:34:58;100016.88;;;6.15;98.06
71109;BME280;59614;51.012;-1.648;2023-04-24T05:37:24;100015.09;;;6.24;97.90
71109;BME280;59614;51.012;-1.648;2023-04-24T05:39:50;100024.69;;;6.20;98.06
71109;BME280;59614;51.012;-1.648;2023-04-24T05:42:15;100033.44;;;6.25;97.82
71109;BME280;59614;51.012;-1.648;2023-04-24T05:44:40;100033.38;;;6.34;97.20
71109;BME280;59614;51.012;-1.648;2023-04-24T05:47:06;100033.38;;;6.38;96.96
71109;BME280;59614;51.012;-1.648;2023-04-24T05:49:31;100039.47;;;6.38;97.58
71109;BME280;59614;51.012;-1.648;2023-04-24T05:51:57;100047.34;;;6.33;98.04
71109;BME280;59614;51.012;-1.648;2023-04-24T05:54:22;100044.63;;;6.55;98.87
71109;BME280;59614;51.012;-1.648;2023-04-24T05:56:49;100048.09;;;6.60;98.13
71109;BME280;59614;51.012;-1.648;2023-04-24T05:59:14;100046.25;;;6.75;98.13
71109;BME280;59614;51.012;-1.648;2023-04-24T06:01:40;100043.63;;;6.75;97.99
71109;BME280;59614;51.012;-1.648;2023-04-24T06:04:05;100045.31;;;6.85;97.75
71109;BME280;59614;51.012;-1.648;2023-04-24T06:06:31;100050.53;;;6.90;97.19
71109;BME280;59614;51.012;-1.648;2023-04-24T06:08:57;100050.47;;;6.94;97.49
71109;BME280;59614;51.012;-1.648;2023-04-24T06:11:24;100049.56;;;6.99;96.95
71109;BME280;59614;51.012;-1.648;2023-04-24T06:13:50;100050.31;;;7.16;96.78
71109;BME280;59614;51.012;-1.648;2023-04-24T06:16:15;100047.50;;;7.36;96.60
71109;BME280;59614;51.012;-1.648;2023-04-24T06:18:41;100057.00;;;7.51;95.96
71109;BME280;59614;51.012;-1.648;2023-04-24T06:21:06;100058.78;;;7.46;95.52
71109;BME280;59614;51.012;-1.648;2023-04-24T06:23:31;100057.69;;;7.66;95.15
71109;BME280;59614;51.012;-1.648;2023-04-24T06:25:58;100071.56;;;7.80;95.85
71109;BME280;59614;51.012;-1.648;2023-04-24T06:28:24;100067.25;;;7.76;93.14
71109;BME280;59614;51.012;-1.648;2023-04-24T06:30:49;100070.25;;;7.37;93.10
71109;BME280;59614;51.012;-1.648;2023-04-24T06:33:16;100069.13;;;7.65;93.92
71109;BME280;59614;51.012;-1.648;2023-04-24T06:35:41;100075.31;;;7.54;92.65
71109;BME280;59614;51.012;-1.648;2023-04-24T06:38:07;100068.25;;;7.63;93.00
71109;BME280;59614;51.012;-1.648;2023-04-24T06:40:32;100058.31;;;7.91;91.99
71109;BME280;59614;51.012;-1.648;2023-04-24T06:42:58;100058.91;;;8.16;91.04
71109;BME280;59614;51.012;-1.648;2023-04-24T06:45:25;100055.59;;;8.69;90.44
71109;BME280;59614;51.012;-1.648;2023-04-24T06:47:51;100056.03;;;8.98;89.71
71109;BME280;59614;51.012;-1.648;2023-04-24T06:50:16;100064.44;;;9.21;89.13
71109;BME280;59614;51.012;-1.648;2023-04-24T06:52:42;100064.16;;;9.38;86.65
71109;BME280;59614;51.012;-1.648;2023-04-24T06:55:08;100062.78;;;9.67;84.55
71109;BME280;59614;51.012;-1.648;2023-04-24T06:57:33;100069.66;;;9.74;84.00
71109;BME280;59614;51.012;-1.648;2023-04-24T06:59:59;100059.47;;;10.45;82.49
71109;BME280;59614;51.012;-1.648;2023-04-24T07:02:25;100063.47;;;11.01;80.81
71109;BME280;59614;51.012;-1.648;2023-04-24T07:04:50;100062.63;;;10.63;79.13
71109;BME280;59614;51.012;-1.648;2023-04-24T07:07:15;100058.78;;;9.43;81.43
71109;BME280;59614;51.012;-1.648;2023-04-24T07:09:41;100072.53;;;10.08;83.39
71109;BME280;59614;51.012;-1.648;2023-04-24T07:12:10;100061.63;;;10.69;80.44
71109;BME280;59614;51.012;-1.648;2023-04-24T07:14:39;100063.13;;;11.15;79.42
71109;BME280;59614;51.012;-1.648;2023-04-24T07:17:05;100068.59;;;11.09;76.75
71109;BME280;59614;51.012;-1.648;2023-04-24T07:19:32;100058.72;;;11.85;76.63
71109;BME280;59614;51.012;-1.648;2023-04-24T07:21:58;100063.13;;;11.17;76.28
71109;BME280;59614;51.012;-1.648;2023-04-24T07:24:24;100064.66;;;11.25;76.98
71109;BME280;59614;51.012;-1.648;2023-04-24T07:26:51;100057.25;;;11.40;77.49
71109;BME280;59614;51.012;-1.648;2023-04-24T07:29:17;100063.94;;;11.53;75.06
71109;BME280;59614;51.012;-1.648;2023-04-24T07:31:43;100063.38;;;12.08;72.15
71109;BME280;59614;51.012;-1.648;2023-04-24T07:34:09;100064.84;;;12.18;72.58
71109;BME280;59614;51.012;-1.648;2023-04-24T07:36:34;100064.94;;;12.45;71.62
71109;BME280;59614;51.012;-1.648;2023-04-24T07:39:00;100069.78;;;12.89;69.51
71109;BME280;59614;51.012;-1.648;2023-04-24T07:41:25;100073.47;;;13.39;70.76
71109;BME280;59614;51.012;-1.648;2023-04-24T07:43:52;100081.50;;;13.37;67.56
71109;BME280;59614;51.012;-1.648;2023-04-24T07:46:19;100084.97;;;12.84;68.86
71109;BME280;59614;51.012;-1.648;2023-04-24T07:48:45;100082.97;;;12.91;68.55
71109;BME280;59614;51.012;-1.648;2023-04-24T07:51:11;100083.94;;;12.60;69.03
71109;BME280;59614;51.012;-1.648;2023-04-24T07:53:38;100082.91;;;12.94;68.28
71109;BME280;59614;51.012;-1.648;2023-04-24T07:56:05;100078.13;;;13.05;68.65
71109;BME280;59614;51.012;-1.648;2023-04-24T07:58:31;100080.94;;;12.99;68.67
71109;BME280;59614;51.012;-1.648;2023-04-24T08:00:56;100074.63;;;13.30;70.57
71109;BME280;59614;51.012;-1.648;2023-04-24T08:03:23;100072.94;;;13.01;71.08
71109;BME280;59614;51.012;-1.648;2023-04-24T08:05:49;100079.78;;;13.08;70.42
71109;BME280;59614;51.012;-1.648;2023-04-24T08:08:16;100088.63;;;13.35;70.40
71109;BME280;59614;51.012;-1.648;2023-04-24T08:10:41;100073.22;;;13.20;70.77
71109;BME280;59614;51.012;-1.648;2023-04-24T08:13:07;100083.09;;;13.43;69.46
71109;BME280;59614;51.012;-1.648;2023-04-24T08:15:32;100075.72;;;12.69;71.37
71109;BME280;59614;51.012;-1.648;2023-04-24T08:17:58;100073.16;;;12.66;71.32
71109;BME280;59614;51.012;-1.648;2023-04-24T08:20:23;100079.41;;;12.63;68.42
71109;BME280;59614;51.012;-1.648;2023-04-24T08:22:49;100081.44;;;12.55;70.39
71109;BME280;59614;51.012;-1.648;2023-04-24T08:25:14;100085.25;;;12.75;70.02
71109;BME280;59614;51.012;-1.648;2023-04-24T08:27:40;100085.28;;;12.73;68.83
71109;BME280;59614;51.012;-1.648;2023-04-24T08:30:06;100077.47;;;12.69;69.19
71109;BME280;59614;51.012;-1.648;2023-04-24T08:32:32;100087.38;;;12.62;73.35
71109;BME280;59614;51.012;-1.648;2023-04-24T08:34:58;100082.63;;;12.73;73.41
71109;BME280;59614;51.012;-1.648;2023-04-24T08:37:25;100082.50;;;12.48;74.45
71109;BME280;59614;51.012;-1.648;2023-04-24T08:39:51;100085.75;;;12.58;74.85
71109;BME280;59614;51.012;-1.648;2023-04-24T08:42:18;100084.72;;;12.62;74.85
71109;BME280;59614;51.012;-1.648;2023-04-24T08:44:44;100081.25;;;12.31;74.84
71109;BME280;59614;51.012;-1.648;2023-04-24T08:47:11;100094.47;;;12.61;75.13
71109;BME280;59614;51.012;-1.648;2023-04-24T08:49:37;100086.09;;;12.75;75.33
71109;BME280;59614;51.012;-1.648;2023-04-24T08:52:04;100085.72;;;12.88;74.30
71109;BME280;59614;51.012;-1.648;2023-04-24T08:54:31;100084.84;;;13.16;74.56
71109;BME280;59614;51.012;-1.648;2023-04-24T08:56:59;100089.25;;;13.17;73.86
71109;BME280;59614;51.012;-1.648;2023-04-24T08:59:29;100088.63;;;13.35;73.84
71109;BME280;59614;51.012;-1.648;2023-04-24T09:01:56;100085.84;;;13.40;73.10
71109;BME280;59614;51.012;-1.648;2023-04-24T09:04:22;100092.56;;;13.50;72.85
71109;BME280;59614;51.012;-1.648;2023-04-24T09:06:49;100091.06;;;13.15;73.57
71109;BME280;59614;51.012;-1.648;2023-04-24T09:09:16;100084.84;;;13.16;73.34
71109;BME280;59614;51.012;-1.648;2023-04-24T09:11:42;100089.78;;;13.26;71.78
71109;BME280;59614;51.012;-1.648;2023-04-24T09:14:09;100081.75;;;13.56;71.87
71109;BME280;59614;51.012;-1.648;2023-04-24T09:16:35;100087.47;;;13.44;72.91
71109;BME280;59614;51.012;-1.648;2023-04-24T09:19:00;100077.03;;;13.39;71.11
71109;BME280;59614;51.012;-1.648;2023-04-24T09:21:31;100081.53;;;13.88;70.64
71109;BME280;59614;51.012;-1.648;2023-04-24T09:24:03;100084.47;;;13.80;71.17
71109;BME280;59614;51.012;-1.648;2023-04-24T09:26:30;100083.59;;;13.80;69.38
71109;BME280;59614;51.012;-1.648;2023-04-24T09:28:59;100087.78;;;14.11;70.00
71109;BME280;59614;51.012;-1.648;2023-04-24T09:31:27;100081.97;;;14.25;67.97
71109;BME280;59614;51.012;-1.648;2023-04-24T09:33:55;100087.75;;;13.87;69.48
71109;BME280;59614;51.012;-1.648;2023-04-24T09:36:34;100079.84;;;14.34;67.42
71109;BME280;59614;51.012;-1.648;2023-04-24T09:39:06;100077.41;;;14.76;64.64
71109;BME280;59614;51.012;-1.648;2023-04-24T09:41:33;100082.22;;;14.42;64.72
71109;BME280;59614;51.012;-1.648;2023-04-24T09:44:27;100098.53;;;14.55;65.88
71109;BME280;59614;51.012;-1.648;2023-04-24T09:46:58;100093.47;;;14.49;66.43
71109;BME280;59614;51.012;-1.648;2023-04-24T09:49:28;100086.16;;;14.79;64.45
71109;BME280;59614;51.012;-1.648;2023-04-24T09:52:10;100091.72;;;14.95;65.69
71109;BME280;59614;51.012;-1.648;2023-04-24T09:54:36;100094.91;;;15.26;64.58
71109;BME280;59614;51.012;-1.648;2023-04-24T09:57:02;100086.50;;;15.14;60.75
71109;BME280;59614;51.012;-1.648;2023-04-24T09:59:28;100096.25;;;14.46;61.41
71109;BME280;59614;51.012;-1.648;2023-04-24T10:01:54;100088.91;;;14.52;64.76
71109;BME280;59614;51.012;-1.648;2023-04-24T10:04:23;100088.09;;;14.74;63.10
71109;BME280;59614;51.012;-1.648;2023-04-24T10:06:50;100096.22;;;14.22;64.19
71109;BME280;59614;51.012;-1.648;2023-04-24T10:09:17;100097.88;;;14.26;62.50
71109;BME280;59614;51.012;-1.648;2023-04-24T10:11:45;100100.09;;;13.88;62.47
71109;BME280;59614;51.012;-1.648;2023-04-24T10:14:13;100097.44;;;13.63;63.42
71109;BME280;59614;51.012;-1.648;2023-04-24T10:16:39;100102.53;;;14.19;64.76
71109;BME280;59614;51.012;-1.648;2023-04-24T10:19:06;100084.44;;;14.53;64.35
71109;BME280;59614;51.012;-1.648;2023-04-24T10:21:32;100078.41;;;15.60;61.64
71109;BME280;59614;51.012;-1.648;2023-04-24T10:23:58;100081.50;;;16.51;59.20
71109;BME280;59614;51.012;-1.648;2023-04-24T10:26:26;100089.19;;;15.99;58.47
71109;BME280;59614;51.012;-1.648;2023-04-24T10:28:52;100086.25;;;15.21;61.80
71109;BME280;59614;51.012;-1.648;2023-04-24T10:31:19;100084.63;;;15.39;59.37
71109;BME280;59614;51.012;-1.648;2023-04-24T10:33:46;100079.84;;;14.82;60.19
71109;BME280;59614;51.012;-1.648;2023-04-24T10:36:12;100088.81;;;13.83;63.85
71109;BME280;59614;51.012;-1.648;2023-04-24T10:38:41;100079.16;;;13.80;66.81
71109;BME280;59614;51.012;-1.648;2023-04-24T10:41:12;100082.53;;;13.05;67.74
71109;BME280;59614;51.012;-1.648;2023-04-24T10:43:45;100084.28;;;13.06;68.08
71109;BME280;59614;51.012;-1.648;2023-04-24T10:46:10;100079.47;;;13.46;69.89
71109;BME280;59614;51.012;-1.648;2023-04-24T10:48:52;100078.16;;;13.04;67.97
71109;BME280;59614;51.012;-1.648;2023-04-24T10:51:22;100079.66;;;13.12;68.38
71109;BME280;59614;51.012;-1.648;2023-04-24T10:53:49;100080.34;;;13.18;72.03
71109;BME280;59614;51.012;-1.648;2023-04-24T10:56:16;100076.22;;;13.09;73.12
71109;BME280;59614;51.012;-1.648;2023-04-24T10:58:43;100064.31;;;13.49;74.07
71109;BME280;59614;51.012;-1.648;2023-04-24T11:01:26;100066.69;;;13.03;74.40
71109;BME280;59614;51.012;-1.648;2023-04-24T11:04:02;100066.00;;;13.52;72.27
71109;BME280;59614;51.012;-1.648;2023-04-24T11:06:35;100068.34;;;13.61;75.42
71109;BME280;59614;51.012;-1.648;2023-04-24T11:09:09;100066.19;;;13.19;77.86
71109;BME280;59614;51.012;-1.648;2023-04-24T11:11:38;100088.22;;;12.34;79.07
71109;BME280;59614;51.012;-1.648;2023-04-24T11:14:09;100095.16;;;12.68;83.28
71109;BME280;59614;51.012;-1.648;2023-04-24T11:16:42;100082.56;;;12.46;79.86
71109;BME280;59614;51.012;-1.648;2023-04-24T11:26:54;100059.88;;;15.16;67.33
71109;BME280;59614;51.012;-1.648;2023-04-24T11:29:20;100043.81;;;15.40;63.65
71109;BME280;59614;51.012;-1.648;2023-04-24T11:31:47;100044.69;;;14.51;68.52
71109;BME280;59614;51.012;-1.648;2023-04-24T11:34:17;100048.41;;;13.49;72.63
71109;BME280;59614;51.012;-1.648;2023-04-24T11:36:44;100048.34;;;12.97;75.15
71109;BME280;59614;51.012;-1.648;2023-04-24T11:39:11;100049.94;;;12.74;78.21
71109;BME280;59614;51.012;-1.648;2023-04-24T11:41:37;100056.25;;;12.42;78.28
71109;BME280;59614;51.012;-1.648;2023-04-24T11:44:06;100059.38;;;12.55;77.94
71109;BME280;59614;51.012;-1.648;2023-04-24T11:46:32;100068.09;;;12.28;75.95
71109;BME280;59614;51.012;-1.648;2023-04-24T11:48:58;100070.09;;;12.20;82.38
71109;BME280;59614;51.012;-1.648;2023-04-24T11:51:25;100080.50;;;12.56;84.90
71109;BME280;59614;51.012;-1.648;2023-04-24T11:53:51;100066.22;;;12.00;81.00
71109;BME280;59614;51.012;-1.648;2023-04-24T11:56:24;100065.44;;;11.98;77.69
71109;BME280;59614;51.012;-1.648;2023-04-24T11:58:52;100078.47;;;11.37;77.61
71109;BME280;59614;51.012;-1.648;2023-04-24T12:01:19;100084.00;;;11.94;82.25
71109;BME280;59614;51.012;-1.648;2023-04-24T12:03:48;100075.13;;;12.29;85.29
71109;BME280;59614;51.012;-1.648;2023-04-24T12:06:14;100081.84;;;11.42;86.62
71109;BME280;59614;51.012;-1.648;2023-04-24T12:08:39;100077.53;;;11.38;90.09
71109;BME280;59614;51.012;-1.648;2023-04-24T12:11:06;100081.03;;;11.40;91.16
71109;BME280;59614;51.012;-1.648;2023-04-24T12:13:35;100073.75;;;11.50;91.98
71109;BME280;59614;51.012;-1.648;2023-04-24T12:16:03;100070.69;;;10.94;86.61
71109;BME280;59614;51.012;-1.648;2023-04-24T12:18:30;100065.16;;;10.68;86.37
71109;BME280;59614;51.012;-1.648;2023-04-24T12:20:55;100066.41;;;10.89;88.12
71109;BME280;59614;51.012;-1.648;2023-04-24T12:23:43;100062.63;;;10.61;86.07
71109;BME280;59614;51.012;-1.648;2023-04-24T12:26:08;100065.94;;;10.71;86.26
71109;BME280;59614;51.012;-1.648;2023-04-24T12:28:35;100059.75;;;10.31;86.27
71109;BME280;59614;51.012;-1.648;2023-04-24T12:31:02;100059.94;;;10.20;88.32
71109;BME280;59614;51.012;-1.648;2023-04-24T12:33:27;100068.00;;;10.14;89.27
71109;BME280;59614;51.012;-1.648;2023-04-24T12:35:57;100083.25;;;9.98;92.04
71109;BME280;59614;51.012;-1.648;2023-04-24T12:38:24;100084.13;;;9.52;93.83
71109;BME280;59614;51.012;-1.648;2023-04-24T12:41:02;100084.06;;;9.55;96.40
71109;BME280;59614;51.012;-1.648;2023-04-24T12:43:27;100087.59;;;9.54;96.39
71109;BME280;59614;51.012;-1.648;2023-04-24T12:45:53;100094.53;;;9.58;98.20
71109;BME280;59614;51.012;-1.648;2023-04-24T12:48:18;100091.59;;;9.75;97.98
71109;BME280;59614;51.012;-1.648;2023-04-24T12:50:45;100099.41;;;9.80;98.01
71109;BME280;59614;51.012;-1.648;2023-04-24T12:53:10;100104.19;;;9.59;98.77
71109;BME280;59614;51.012;-1.648;2023-04-24T12:55:37;100093.63;;;9.61;99.48